createdAt,value
2018-02-14T00:01:43.292Z,51.40
2018-02-14T00:03:46.706Z,51.60
2018-02-14T00:05:50.073Z,51.70
2018-02-14T00:07:53.474Z,52.10
2018-02-14T00:09:56.834Z,52.40
2018-02-14T00:12:00.243Z,52.20
2018-02-14T00:14:03.609Z,52.60
2018-02-14T00:16:06.951Z,52.80
2018-02-14T00:18:11.144Z,54.20
2018-02-14T00:20:15.297Z,53.50
2018-02-14T00:22:19.411Z,53.60
2018-02-14T00:24:22.782Z,53.60
2018-02-14T00:26:26.148Z,53.70
2018-02-14T00:28:30.340Z,54.20
2018-02-14T00:30:33.693Z,53.80
2018-02-14T00:32:37.813Z,53.80
2018-02-14T00:34:41.169Z,53.70
2018-02-14T00:36:44.498Z,53.70
2018-02-14T00:38:47.874Z,53.90
2018-02-14T00:40:51.988Z,54.70
2018-02-14T00:42:56.193Z,54.30
2018-02-14T00:44:59.572Z,54.50
2018-02-14T00:47:02.925Z,55.10
2018-02-14T00:49:06.288Z,55.00
2018-02-14T00:51:09.662Z,54.90
2018-02-14T00:53:13.758Z,54.80
2018-02-14T00:55:17.924Z,54.80
2018-02-14T00:57:21.290Z,54.70
2018-02-14T00:59:25.462Z,54.80
2018-02-14T01:01:28.800Z,54.80
2018-02-14T01:03:32.138Z,55.40
2018-02-14T01:05:35.510Z,55.70
2018-02-14T01:07:38.878Z,56.20
2018-02-14T01:09:42.241Z,56.00
2018-02-14T01:11:46.348Z,55.80
2018-02-14T01:13:50.453Z,55.80
2018-02-14T01:15:53.813Z,55.90
2018-02-14T01:17:57.202Z,56.00
2018-02-14T01:20:06.354Z,55.40
2018-02-14T01:22:09.719Z,55.70
2018-02-14T01:24:13.096Z,55.30
2018-02-14T01:26:16.480Z,55.90
2018-02-14T01:28:19.836Z,55.70
2018-02-14T01:30:23.165Z,55.50
2018-02-14T01:32:26.543Z,55.90
2018-02-14T01:34:29.884Z,56.10
2018-02-14T01:36:33.295Z,56.00
2018-02-14T01:38:37.412Z,56.20
2018-02-14T01:40:40.780Z,56.50
2018-02-14T01:42:44.209Z,57.00
2018-02-14T01:44:47.573Z,57.40
2018-02-14T01:46:51.783Z,57.30
2018-02-14T01:48:55.904Z,56.90
2018-02-14T01:50:59.290Z,57.10
2018-02-14T01:53:02.668Z,57.00
2018-02-14T01:55:06.017Z,56.90
2018-02-14T01:57:09.431Z,57.40
2018-02-14T01:59:12.754Z,58.00
2018-02-14T02:01:16.883Z,57.30
2018-02-14T02:03:21.020Z,57.50
2018-02-14T02:05:24.390Z,57.80
2018-02-14T02:07:27.756Z,57.80
2018-02-14T02:09:31.120Z,57.70
2018-02-14T02:11:34.465Z,57.50
2018-02-14T02:13:37.860Z,57.80
2018-02-14T02:15:41.197Z,57.60
2018-02-14T02:17:44.545Z,57.30
2018-02-14T02:19:48.637Z,57.80
2018-02-14T02:21:52.763Z,57.90
2018-02-14T02:23:56.139Z,57.70
2018-02-14T02:26:00.245Z,57.80
2018-02-14T02:28:03.622Z,57.70
2018-02-14T02:30:06.954Z,57.50
2018-02-14T02:32:10.322Z,57.60
2018-02-14T02:34:13.688Z,57.70
2018-02-14T02:36:17.078Z,57.50
2018-02-14T02:38:20.431Z,57.70
2018-02-14T02:40:31.749Z,57.70
2018-02-14T02:42:35.107Z,57.40
2018-02-14T02:44:38.465Z,57.60
2018-02-14T02:46:41.814Z,58.30
2018-02-14T02:48:45.185Z,57.70
2018-02-14T02:50:48.548Z,57.80
2018-02-14T02:52:52.659Z,58.60
2018-02-14T02:54:56.844Z,58.40
2018-02-14T02:57:00.973Z,58.80
2018-02-14T02:59:05.086Z,58.70
2018-02-14T03:01:08.475Z,58.50
2018-02-14T03:03:11.845Z,58.60
2018-02-14T03:05:15.241Z,58.60
2018-02-14T03:07:18.580Z,58.90
2018-02-14T03:09:21.974Z,59.10
2018-02-14T03:11:25.368Z,59.50
2018-02-14T03:13:28.701Z,59.30
2018-02-14T03:15:32.051Z,58.80
2018-02-14T03:17:35.422Z,59.20
2018-02-14T03:19:38.780Z,59.30
2018-02-14T03:21:42.130Z,59.10
2018-02-14T03:23:45.478Z,59.70
2018-02-14T03:25:49.605Z,59.40
2018-02-14T03:27:52.977Z,59.00
2018-02-14T03:29:57.079Z,59.30
2018-02-14T03:32:01.222Z,59.20
2018-02-14T03:34:04.592Z,59.10
2018-02-14T03:36:07.967Z,59.30
2018-02-14T03:38:11.343Z,59.60
2018-02-14T03:40:15.468Z,59.70
2018-02-14T03:42:19.621Z,59.80
2018-02-14T03:44:22.983Z,60.00
2018-02-14T03:46:26.329Z,59.30
2018-02-14T03:48:29.744Z,59.70
2018-02-14T03:50:33.115Z,59.20
2018-02-14T03:52:36.492Z,59.50
2018-02-14T03:54:39.858Z,59.50
2018-02-14T03:56:43.961Z,59.10
2018-02-14T03:58:49.072Z,59.70
2018-02-14T04:00:53.183Z,59.10
2018-02-14T04:02:56.632Z,59.00
2018-02-14T04:04:59.984Z,58.50
2018-02-14T04:07:03.335Z,59.10
2018-02-14T04:09:06.709Z,59.50
2018-02-14T04:11:10.061Z,60.60
2018-02-14T04:13:14.183Z,60.80
2018-02-14T04:15:17.583Z,60.70
2018-02-14T04:17:20.949Z,60.30
2018-02-14T04:19:24.387Z,60.00
2018-02-14T04:21:27.742Z,59.60
2018-02-14T04:23:31.099Z,59.30
2018-02-14T04:25:34.465Z,60.00
2018-02-14T04:27:37.818Z,60.60
2018-02-14T04:29:41.938Z,59.70
2018-02-14T04:31:45.263Z,59.60
2018-02-14T04:33:48.632Z,59.10
2018-02-14T04:35:52.046Z,59.60
2018-02-14T04:37:55.418Z,59.20
2018-02-14T04:39:58.810Z,60.00
2018-02-14T04:42:02.181Z,59.90
2018-02-14T04:44:05.546Z,59.80
2018-02-14T04:46:08.914Z,59.90
2018-02-14T04:48:12.261Z,59.60
2018-02-14T04:50:15.639Z,59.70
2018-02-14T04:52:19.010Z,59.40
2018-02-14T04:54:22.352Z,59.70
2018-02-14T04:56:25.699Z,59.50
2018-02-14T04:58:29.041Z,59.80
2018-02-14T05:00:33.177Z,59.80
2018-02-14T05:02:36.538Z,59.40
2018-02-14T05:04:39.873Z,59.80
2018-02-14T05:06:43.226Z,59.50
2018-02-14T05:08:46.587Z,60.00
2018-02-14T05:10:50.732Z,60.00
2018-02-14T05:12:54.338Z,60.00
2018-02-14T05:14:57.798Z,59.90
2018-02-14T05:17:01.973Z,59.60
2018-02-14T05:19:05.293Z,59.40
2018-02-14T05:21:09.369Z,59.70
2018-02-14T05:23:12.760Z,59.50
2018-02-14T05:25:16.104Z,59.40
2018-02-14T05:27:19.461Z,58.90
2018-02-14T05:29:23.609Z,59.50
2018-02-14T05:31:26.943Z,59.50
2018-02-14T05:33:30.309Z,59.50
2018-02-14T05:35:33.682Z,59.70
2018-02-14T05:37:37.785Z,59.80
2018-02-14T05:39:41.155Z,59.60
2018-02-14T05:41:46.487Z,59.80
2018-02-14T05:43:50.620Z,60.10
2018-02-14T05:45:53.971Z,60.30
2018-02-14T05:47:57.325Z,60.30
2018-02-14T05:50:00.704Z,59.50
2018-02-14T05:52:04.064Z,59.50
2018-02-14T05:54:08.169Z,59.80
2018-02-14T05:56:12.313Z,59.70
2018-02-14T05:58:15.637Z,59.40
2018-02-14T06:00:19.029Z,60.00
2018-02-14T06:02:22.658Z,59.70
2018-02-14T06:04:26.912Z,59.40
2018-02-14T06:06:30.317Z,59.60
2018-02-14T06:08:33.682Z,59.40
2018-02-14T06:10:37.076Z,59.70
2018-02-14T06:12:40.421Z,59.90
2018-02-14T06:14:43.746Z,59.70
2018-02-14T06:16:47.170Z,59.70
2018-02-14T06:18:50.554Z,59.30
2018-02-14T06:20:53.950Z,59.90
2018-02-14T06:22:57.278Z,59.70
2018-02-14T06:25:00.607Z,59.70
2018-02-14T06:27:03.988Z,60.20
2018-02-14T06:29:08.134Z,60.00
2018-02-14T06:31:11.525Z,59.90
2018-02-14T06:33:14.972Z,60.20
2018-02-14T06:35:18.305Z,60.40
2018-02-14T06:37:22.608Z,60.20
2018-02-14T06:39:25.951Z,60.60
2018-02-14T06:41:29.331Z,60.90
2018-02-14T06:43:32.691Z,60.70
2018-02-14T06:45:36.032Z,61.00
2018-02-14T06:47:39.415Z,61.30
2018-02-14T06:49:42.739Z,60.80
2018-02-14T06:51:46.865Z,60.60
2018-02-14T06:53:50.236Z,60.70
2018-02-14T06:55:54.346Z,60.80
2018-02-14T06:57:59.395Z,61.20
2018-02-14T07:00:03.542Z,61.10
2018-02-14T07:02:06.874Z,61.10
2018-02-14T07:04:10.224Z,60.80
2018-02-14T07:06:13.545Z,60.50
2018-02-14T07:08:16.920Z,60.90
2018-02-14T07:10:20.290Z,60.90
2018-02-14T07:12:23.633Z,61.30
2018-02-14T07:14:27.789Z,61.40
2018-02-14T07:16:31.155Z,61.30
2018-02-14T07:18:35.250Z,61.30
2018-02-14T07:20:39.388Z,61.70
2018-02-14T07:22:42.736Z,61.70
2018-02-14T07:24:46.130Z,60.90
2018-02-14T07:26:50.262Z,61.00
2018-02-14T07:28:54.379Z,60.80
2018-02-14T07:30:57.744Z,60.60
2018-02-14T07:33:01.089Z,60.80
2018-02-14T07:35:04.426Z,61.30
2018-02-14T07:37:07.776Z,61.60
2018-02-14T07:39:11.880Z,61.80
2018-02-14T07:41:15.252Z,62.00
2018-02-14T07:43:18.575Z,62.00
2018-02-14T07:45:21.908Z,62.20
2018-02-14T07:47:26.041Z,62.20
2018-02-14T07:49:29.375Z,62.20
2018-02-14T07:51:32.785Z,62.20
2018-02-14T07:53:36.109Z,62.40
2018-02-14T07:55:40.196Z,63.60
2018-02-14T07:57:43.563Z,63.50
2018-02-14T07:59:46.913Z,63.70
2018-02-14T08:01:50.299Z,63.70
2018-02-14T08:03:53.623Z,63.50
2018-02-14T08:05:56.960Z,63.90
2018-02-14T08:08:01.097Z,67.80
2018-02-14T08:10:04.441Z,67.90
2018-02-14T08:12:07.817Z,70.30
2018-02-14T08:14:11.228Z,74.10
2018-02-14T08:16:15.334Z,67.00
2018-02-14T08:18:18.731Z,66.90
2018-02-14T08:20:22.097Z,55.00
2018-02-14T08:22:25.706Z,54.50
2018-02-14T08:24:29.078Z,50.50
2018-02-14T08:26:32.404Z,45.20
2018-02-14T08:28:35.776Z,41.70
2018-02-14T08:30:39.099Z,37.60
2018-02-14T08:32:43.193Z,36.30
2018-02-14T08:34:46.537Z,36.40
2018-02-14T08:36:49.869Z,28.80
2018-02-14T08:38:53.286Z,24.60
2018-02-14T08:40:56.648Z,21.00
2018-02-14T08:43:00.007Z,22.80
2018-02-14T08:45:03.414Z,19.20
2018-02-14T08:47:06.781Z,20.30
2018-02-14T08:49:10.171Z,20.80
2018-02-14T08:51:13.516Z,15.70
2018-02-14T08:53:16.854Z,13.90
2018-02-14T08:55:20.231Z,13.40
2018-02-14T08:57:23.570Z,14.90
2018-02-14T08:59:26.917Z,12.40
2018-02-14T09:01:30.274Z,13.40
2018-02-14T09:03:33.629Z,12.10
2018-02-14T09:05:36.980Z,15.00
2018-02-14T09:07:41.089Z,15.30
2018-02-14T09:09:45.204Z,14.30
2018-02-14T09:11:49.298Z,15.00
2018-02-14T09:13:53.413Z,14.10
2018-02-14T09:15:57.784Z,13.40
2018-02-14T09:18:01.125Z,13.40
2018-02-14T09:20:04.474Z,13.70
2018-02-14T09:22:07.800Z,12.90
2018-02-14T09:24:11.907Z,10.30
2018-02-14T09:26:15.261Z,10.50
2018-02-14T09:28:18.609Z,10.60
2018-02-14T09:30:22.838Z,10.70
2018-02-14T09:32:26.938Z,10.80
2018-02-14T09:34:30.266Z,9.80
2018-02-14T09:36:33.599Z,9.80
2018-02-14T09:38:37.674Z,11.60
2018-02-14T09:40:40.991Z,11.50
2018-02-14T09:42:44.323Z,10.70
2018-02-14T09:44:47.651Z,9.20
2018-02-14T09:46:51.034Z,8.20
2018-02-14T09:48:54.362Z,8.40
2018-02-14T09:50:57.694Z,6.30
2018-02-14T09:53:01.081Z,7.90
2018-02-14T09:55:04.411Z,8.40
2018-02-14T09:57:09.235Z,8.70
2018-02-14T09:59:12.581Z,8.60
2018-02-14T10:01:15.945Z,7.90
2018-02-14T10:03:20.079Z,8.80
2018-02-14T10:05:23.473Z,8.60
2018-02-14T10:07:26.800Z,9.10
2018-02-14T10:09:30.192Z,9.80
2018-02-14T10:11:33.504Z,9.40
2018-02-14T10:13:36.849Z,7.70
2018-02-14T10:15:40.199Z,6.90
2018-02-14T10:17:43.529Z,7.90
2018-02-14T10:19:48.213Z,9.40
2018-02-14T10:21:52.325Z,9.30
2018-02-14T10:23:57.635Z,8.10
2018-02-14T10:26:01.787Z,7.70
2018-02-14T10:28:05.135Z,7.60
2018-02-14T10:30:08.549Z,10.10
2018-02-14T10:32:12.660Z,7.40
2018-02-14T10:34:16.764Z,8.30
2018-02-14T10:36:20.159Z,8.20
2018-02-14T10:38:24.269Z,7.00
2018-02-14T10:40:28.410Z,8.10
2018-02-14T10:42:31.752Z,7.30
2018-02-14T10:44:35.074Z,8.00
2018-02-14T10:46:39.204Z,6.60
2018-02-14T10:48:42.544Z,6.50
2018-02-14T10:50:45.912Z,5.80
2018-02-14T10:52:50.046Z,7.70
2018-02-14T10:54:53.392Z,7.60
2018-02-14T10:56:56.795Z,6.50
2018-02-14T10:59:00.143Z,6.40
2018-02-14T11:01:03.580Z,5.00
2018-02-14T11:03:12.637Z,4.80
2018-02-14T11:05:21.521Z,4.20
2018-02-14T11:07:24.893Z,4.90
2018-02-14T11:09:28.213Z,4.50
2018-02-14T11:11:31.620Z,3.40
2018-02-14T11:13:34.949Z,3.30
2018-02-14T11:15:38.310Z,2.20
2018-02-14T11:17:41.681Z,3.00
2018-02-14T11:19:45.008Z,3.20
2018-02-14T11:21:48.397Z,3.80
2018-02-14T11:23:54.399Z,4.30
2018-02-14T11:25:58.590Z,2.90
2018-02-14T11:28:02.005Z,2.30
2018-02-14T11:30:05.421Z,4.40
2018-02-14T11:32:08.841Z,1.00
2018-02-14T11:34:12.309Z,1.20
2018-02-14T11:36:15.675Z,1.60
2018-02-14T11:38:20.019Z,1.00
2018-02-14T11:40:23.405Z,1.00
2018-02-14T11:42:26.721Z,1.30
2018-02-14T11:44:30.067Z,1.00
2018-02-14T11:46:33.423Z,1.00
2018-02-14T11:48:36.806Z,1.00
2018-02-14T11:50:40.818Z,1.00
2018-02-14T11:52:46.706Z,1.00
2018-02-14T11:54:50.700Z,1.00
2018-02-14T11:56:54.791Z,1.00
2018-02-14T11:58:58.945Z,1.00
2018-02-14T12:01:02.278Z,1.00
2018-02-14T12:03:06.398Z,1.00
2018-02-14T12:05:12.142Z,1.00
2018-02-14T12:07:15.489Z,1.00
2018-02-14T12:09:20.541Z,1.00
2018-02-14T12:11:23.884Z,1.00
2018-02-14T12:13:27.279Z,1.00
2018-02-14T12:15:31.404Z,1.00
2018-02-14T12:17:35.662Z,1.00
2018-02-14T12:19:38.979Z,1.00
2018-02-14T12:21:43.476Z,1.00
2018-02-14T12:23:46.769Z,1.00
2018-02-14T12:25:50.153Z,1.00
2018-02-14T12:27:54.412Z,1.00
2018-02-14T12:29:57.772Z,1.00
2018-02-14T12:32:01.150Z,1.00
2018-02-14T12:34:04.470Z,1.00
2018-02-14T12:36:07.867Z,1.00
2018-02-14T12:38:11.970Z,1.00
2018-02-14T12:40:16.055Z,1.00
2018-02-14T12:42:20.266Z,1.00
2018-02-14T12:44:23.581Z,1.00
2018-02-14T12:46:27.737Z,1.00
2018-02-14T12:48:32.778Z,1.00
2018-02-14T12:50:36.962Z,1.00
2018-02-14T12:52:41.089Z,1.00
2018-02-14T12:54:44.470Z,1.00
2018-02-14T12:56:47.835Z,1.00
2018-02-14T12:58:51.937Z,1.00
2018-02-14T13:00:56.026Z,1.00
2018-02-14T13:02:59.373Z,1.00
2018-02-14T13:05:02.680Z,1.00
2018-02-14T13:07:06.086Z,1.00
2018-02-14T13:09:09.566Z,1.00
2018-02-14T13:11:12.887Z,1.00
2018-02-14T13:13:16.238Z,1.00
2018-02-14T13:15:19.566Z,1.00
2018-02-14T13:17:23.708Z,1.00
2018-02-14T13:19:27.077Z,1.00
2018-02-14T13:21:30.387Z,1.00
2018-02-14T13:23:34.476Z,1.00
2018-02-14T13:25:38.700Z,1.00
2018-02-14T13:27:42.099Z,1.00
2018-02-14T13:29:47.240Z,1.00
2018-02-14T13:31:58.827Z,1.00
2018-02-14T13:34:03.835Z,1.00
2018-02-14T13:36:08.049Z,1.00
2018-02-14T13:38:12.487Z,1.00
2018-02-14T13:40:16.419Z,1.00
2018-02-14T13:42:19.986Z,1.00
2018-02-14T13:44:23.503Z,1.00
2018-02-14T13:46:28.250Z,1.00
2018-02-14T13:48:32.001Z,1.00
2018-02-14T13:50:35.482Z,1.00
2018-02-14T13:52:38.838Z,1.00
2018-02-14T13:54:42.172Z,1.00
2018-02-14T13:56:45.567Z,1.00
2018-02-14T13:58:49.122Z,1.00
2018-02-14T14:00:52.538Z,1.00
2018-02-14T14:02:55.959Z,1.00
2018-02-14T14:04:59.994Z,1.00
2018-02-14T14:07:03.839Z,1.00
2018-02-14T14:09:07.152Z,1.00
2018-02-14T14:11:10.496Z,1.00
2018-02-14T14:13:13.970Z,1.00
2018-02-14T14:15:17.335Z,1.00
2018-02-14T14:17:21.978Z,1.00
2018-02-14T14:19:25.588Z,1.00
2018-02-14T14:21:30.583Z,1.00
2018-02-14T14:23:34.803Z,1.00
2018-02-14T14:25:43.531Z,1.00
2018-02-14T14:27:47.321Z,1.00
2018-02-14T14:29:51.831Z,1.00
2018-02-14T14:31:57.697Z,1.00
2018-02-14T14:34:03.463Z,1.00
2018-02-14T14:36:10.434Z,1.00
2018-02-14T14:38:15.304Z,1.00
2018-02-14T14:40:19.582Z,1.00
2018-02-14T14:42:22.950Z,1.00
2018-02-14T14:44:26.309Z,1.00
2018-02-14T14:46:29.767Z,1.00
2018-02-14T14:48:33.146Z,1.00
2018-02-14T14:50:37.604Z,1.00
2018-02-14T14:52:40.971Z,1.00
2018-02-14T14:54:44.289Z,1.00
2018-02-14T14:56:47.599Z,1.00
2018-02-14T14:58:50.944Z,1.00
2018-02-14T15:00:54.295Z,1.00
2018-02-14T15:02:57.729Z,1.00
2018-02-14T15:05:02.640Z,1.00
2018-02-14T15:07:06.014Z,1.00
2018-02-14T15:09:10.643Z,1.00
2018-02-14T15:11:16.344Z,1.00
2018-02-14T15:13:22.150Z,1.00
2018-02-14T15:15:25.510Z,1.00
2018-02-14T15:17:28.941Z,1.00
2018-02-14T15:19:32.402Z,1.00
2018-02-14T15:21:35.744Z,1.00
2018-02-14T15:23:39.104Z,1.00
2018-02-14T15:25:45.072Z,1.00
2018-02-14T15:27:49.118Z,1.00
2018-02-14T15:29:53.551Z,1.00
2018-02-14T15:31:58.466Z,1.00
2018-02-14T15:34:02.187Z,1.00
2018-02-14T15:36:05.547Z,1.00
2018-02-14T15:38:08.947Z,1.00
2018-02-14T15:40:12.499Z,1.00
2018-02-14T15:42:15.847Z,1.00
2018-02-14T15:44:19.252Z,1.00
2018-02-14T15:46:22.618Z,1.00
2018-02-14T15:48:25.976Z,1.00
2018-02-14T15:50:29.370Z,1.00
2018-02-14T15:52:32.811Z,1.00
2018-02-14T15:54:36.318Z,1.00
2018-02-14T15:56:41.217Z,1.00
2018-02-14T15:58:44.567Z,1.00
2018-02-14T16:00:48.000Z,1.00
2018-02-14T16:02:51.445Z,1.00
2018-02-14T16:04:54.781Z,1.00
2018-02-14T16:06:59.559Z,1.00
2018-02-14T16:09:03.260Z,1.00
2018-02-14T16:11:07.507Z,1.00
2018-02-14T16:13:10.820Z,1.00
2018-02-14T16:15:14.928Z,1.00
2018-02-14T16:17:19.630Z,1.00
2018-02-14T16:19:23.131Z,1.00
2018-02-14T16:21:29.942Z,1.00
2018-02-14T16:23:34.129Z,1.00
2018-02-14T16:25:38.261Z,1.00
2018-02-14T16:27:41.597Z,1.00
2018-02-14T16:29:44.939Z,1.00
2018-02-14T16:31:48.299Z,1.00
2018-02-14T16:33:51.700Z,1.00
2018-02-14T16:35:55.044Z,1.00
2018-02-14T16:37:58.417Z,1.00
2018-02-14T16:40:01.771Z,1.00
2018-02-14T16:42:06.168Z,1.00
2018-02-14T16:44:09.482Z,1.00
2018-02-14T16:46:12.851Z,1.00
2018-02-14T16:48:16.221Z,1.00
2018-02-14T16:50:20.137Z,1.00
2018-02-14T16:52:23.562Z,1.00
2018-02-14T16:54:27.218Z,1.00
2018-02-14T16:56:31.577Z,1.00
2018-02-14T16:58:35.706Z,1.00
2018-02-14T17:00:39.025Z,1.00
2018-02-14T17:02:42.380Z,1.10
2018-02-14T17:04:47.273Z,1.30
2018-02-14T17:06:50.693Z,1.40
2018-02-14T17:08:55.152Z,1.30
2018-02-14T17:10:58.909Z,1.10
2018-02-14T17:13:02.410Z,1.10
2018-02-14T17:15:06.962Z,1.80
2018-02-14T17:17:10.610Z,2.20
2018-02-14T17:19:15.480Z,2.30
2018-02-14T17:21:19.946Z,3.00
2018-02-14T17:23:24.156Z,2.80
2018-02-14T17:25:29.274Z,3.30
2018-02-14T17:27:32.694Z,3.30
2018-02-14T17:29:36.127Z,3.20
2018-02-14T17:31:39.459Z,3.80
2018-02-14T17:33:42.816Z,3.90
2018-02-14T17:35:47.414Z,4.40
2018-02-14T17:37:50.789Z,4.60
2018-02-14T17:39:55.044Z,5.10
2018-02-14T17:41:58.435Z,5.80
2018-02-14T17:44:02.584Z,6.50
2018-02-14T17:46:08.304Z,6.80
2018-02-14T17:48:12.650Z,7.60
2018-02-14T17:50:16.213Z,7.00
2018-02-14T17:52:19.595Z,7.00
2018-02-14T17:54:23.719Z,7.40
2018-02-14T17:56:27.196Z,7.10
2018-02-14T17:58:30.577Z,7.20
2018-02-14T18:00:34.008Z,7.30
2018-02-14T18:02:37.392Z,8.00
2018-02-14T18:04:40.721Z,8.90
2018-02-14T18:06:44.884Z,8.90
2018-02-14T18:08:48.244Z,9.00
2018-02-14T18:10:52.384Z,9.60
2018-02-14T18:12:56.706Z,9.90
2018-02-14T18:15:00.064Z,9.90
2018-02-14T18:17:03.434Z,10.40
2018-02-14T18:19:07.584Z,11.20
2018-02-14T18:21:11.109Z,11.10
2018-02-14T18:23:14.524Z,11.50
2018-02-14T18:25:17.982Z,11.80
2018-02-14T18:27:21.322Z,11.90
2018-02-14T18:29:24.686Z,12.20
2018-02-14T18:31:28.208Z,12.70
2018-02-14T18:33:31.584Z,13.20
2018-02-14T18:35:34.940Z,13.60
2018-02-14T18:37:38.699Z,14.40
2018-02-14T18:39:42.960Z,14.90
2018-02-14T18:41:46.350Z,14.90
2018-02-14T18:43:50.050Z,15.40
2018-02-14T18:45:54.266Z,16.00
2018-02-14T18:47:57.664Z,16.40
2018-02-14T18:50:01.082Z,16.70
2018-02-14T18:52:05.244Z,17.20
2018-02-14T18:54:08.892Z,16.90
2018-02-14T18:56:12.676Z,18.00
2018-02-14T18:58:18.857Z,18.50
2018-02-14T19:00:23.074Z,18.90
2018-02-14T19:02:27.394Z,19.80
2018-02-14T19:04:31.088Z,20.00
2018-02-14T19:06:35.695Z,21.70
2018-02-14T19:08:39.177Z,21.80
2018-02-14T19:10:42.526Z,22.00
2018-02-14T19:12:47.180Z,24.00
2018-02-14T19:14:52.975Z,24.80
2018-02-14T19:16:56.326Z,26.10
2018-02-14T19:19:00.977Z,27.10
2018-02-14T19:21:05.295Z,28.20
2018-02-14T19:23:08.690Z,28.10
2018-02-14T19:25:13.161Z,28.50
2018-02-14T19:27:18.703Z,28.70
2018-02-14T19:29:22.657Z,28.90
2018-02-14T19:31:26.121Z,29.20
2018-02-14T19:33:30.271Z,29.20
2018-02-14T19:35:33.621Z,29.00
2018-02-14T19:37:36.986Z,29.20
2018-02-14T19:39:41.159Z,29.60
2018-02-14T19:41:44.533Z,29.90
2018-02-14T19:43:48.863Z,28.20
2018-02-14T19:45:53.168Z,27.70
2018-02-14T19:47:56.566Z,28.00
2018-02-14T19:50:00.859Z,28.00
2018-02-14T19:52:04.428Z,26.90
2018-02-14T19:54:07.766Z,26.10
2018-02-14T19:56:11.945Z,25.80
2018-02-14T19:58:16.181Z,26.30
2018-02-14T20:00:21.299Z,26.10
2018-02-14T20:02:25.561Z,25.80
2018-02-14T20:04:28.917Z,25.10
2018-02-14T20:06:32.490Z,24.80
2018-02-14T20:08:37.449Z,24.50
2018-02-14T20:10:40.985Z,24.70
2018-02-14T20:12:47.314Z,24.90
2018-02-14T20:14:52.520Z,24.10
2018-02-14T20:16:56.135Z,24.20
2018-02-14T20:19:00.266Z,24.50
2018-02-14T20:21:03.637Z,24.50
2018-02-14T20:23:07.209Z,23.90
2018-02-14T20:25:10.836Z,23.50
2018-02-14T20:27:14.589Z,23.60
2018-02-14T20:29:17.958Z,23.60
2018-02-14T20:31:21.473Z,23.00
2018-02-14T20:33:25.142Z,23.70
2018-02-14T20:35:28.692Z,23.00
2018-02-14T20:37:33.386Z,23.30
2018-02-14T20:39:36.788Z,23.10
2018-02-14T20:41:40.154Z,23.20
2018-02-14T20:43:46.090Z,22.80
2018-02-14T20:45:49.482Z,22.50
2018-02-14T20:47:53.212Z,22.00
2018-02-14T20:49:56.622Z,22.10
2018-02-14T20:51:59.983Z,22.30
2018-02-14T20:54:03.634Z,21.60
2018-02-14T20:56:07.751Z,22.10
2018-02-14T20:58:11.888Z,21.80
2018-02-14T21:00:15.571Z,21.80
2018-02-14T21:02:18.983Z,21.90
2018-02-14T21:04:22.345Z,22.10
2018-02-14T21:06:26.440Z,22.20
2018-02-14T21:08:29.803Z,22.30
2018-02-14T21:10:33.177Z,22.10
2018-02-14T21:12:36.530Z,22.60
2018-02-14T21:14:40.699Z,22.30
2018-02-14T21:16:44.171Z,22.50
2018-02-14T21:18:47.498Z,22.50
2018-02-14T21:20:50.857Z,22.20
2018-02-14T21:22:54.209Z,22.90
2018-02-14T21:24:57.573Z,22.40
2018-02-14T21:27:00.945Z,22.60
2018-02-14T21:29:04.294Z,22.50
2018-02-14T21:31:08.498Z,22.90
2018-02-14T21:33:12.619Z,23.10
2018-02-14T21:35:16.726Z,23.60
2018-02-14T21:37:20.872Z,23.00
2018-02-14T21:39:24.218Z,23.10
2018-02-14T21:41:28.371Z,22.80
2018-02-14T21:43:31.736Z,22.80
2018-02-14T21:45:35.128Z,22.80
2018-02-14T21:47:38.505Z,23.30
2018-02-14T21:49:42.663Z,23.20
2018-02-14T21:51:46.036Z,23.20
2018-02-14T21:53:49.422Z,23.70
2018-02-14T21:55:52.772Z,23.30
2018-02-14T21:57:56.152Z,23.80
2018-02-14T21:59:59.496Z,24.00
2018-02-14T22:02:02.855Z,24.00
2018-02-14T22:04:06.232Z,24.30
2018-02-14T22:06:10.377Z,24.00
2018-02-14T22:08:13.774Z,24.10
2018-02-14T22:10:17.154Z,24.00
2018-02-14T22:12:21.286Z,24.10
2018-02-14T22:14:24.665Z,24.20
2018-02-14T22:16:28.006Z,24.40
2018-02-14T22:18:31.372Z,25.00
2018-02-14T22:20:34.704Z,25.40
2018-02-14T22:22:38.038Z,24.80
2018-02-14T22:24:41.408Z,25.30
2018-02-14T22:26:45.521Z,25.70
2018-02-14T22:28:48.884Z,25.70
2018-02-14T22:30:52.242Z,25.40
2018-02-14T22:32:55.566Z,25.50
2018-02-14T22:34:59.711Z,25.30
2018-02-14T22:37:03.821Z,25.90
2018-02-14T22:39:07.993Z,25.50
2018-02-14T22:41:11.326Z,25.40
2018-02-14T22:43:15.492Z,26.10
2018-02-14T22:45:18.888Z,26.20
2018-02-14T22:47:22.259Z,25.50
2018-02-14T22:49:25.598Z,25.10
2018-02-14T22:51:28.925Z,25.50
2018-02-14T22:53:32.309Z,25.40
2018-02-14T22:55:36.437Z,25.70
2018-02-14T22:57:39.878Z,25.60
2018-02-14T22:59:43.204Z,25.80
2018-02-14T23:01:46.570Z,26.30
2018-02-14T23:03:50.683Z,24.90
2018-02-14T23:05:54.819Z,25.70
2018-02-14T23:07:59.060Z,25.40
2018-02-14T23:10:03.281Z,25.70
2018-02-14T23:12:06.646Z,25.80
2018-02-14T23:14:09.995Z,25.80
2018-02-14T23:16:14.146Z,25.70
2018-02-14T23:18:17.517Z,25.60
2018-02-14T23:20:20.886Z,25.60
2018-02-14T23:22:25.009Z,25.60
2018-02-14T23:24:29.197Z,26.20
2018-02-14T23:26:33.347Z,25.70
2018-02-14T23:28:36.684Z,25.80
2018-02-14T23:30:40.184Z,25.90
2018-02-14T23:32:43.586Z,25.80
2018-02-14T23:34:46.918Z,26.10
2018-02-14T23:36:50.338Z,26.40
2018-02-14T23:38:53.694Z,26.30
2018-02-14T23:40:57.066Z,25.80
2018-02-14T23:43:00.489Z,26.40
2018-02-14T23:45:03.879Z,26.40
2018-02-14T23:47:07.313Z,26.80
2018-02-14T23:49:10.665Z,27.10
2018-02-14T23:51:14.007Z,27.20
2018-02-14T23:53:17.397Z,27.80
2018-02-14T23:55:20.782Z,27.50
2018-02-14T23:57:24.161Z,27.40
2018-02-14T23:59:27.520Z,27.70
